sensor_id;sensor_type;location;lat;lon;timestamp;temperature;humidity
8643;DHT22;4359;49.358;11.256;2022-08-05T00:01:16;21.30;99.90
8643;DHT22;4359;49.358;11.256;2022-08-05T00:03:42;21.30;99.90
8643;DHT22;4359;49.358;11.256;2022-08-05T00:06:09;21.30;99.90
8643;DHT22;4359;49.358;11.256;2022-08-05T00:08:36;21.40;99.90
8643;DHT22;4359;49.358;11.256;2022-08-05T00:11:04;21.40;99.90
8643;DHT22;4359;49.358;11.256;2022-08-05T00:13:34;21.40;99.90
8643;DHT22;4359;49.358;11.256;2022-08-05T00:16:01;21.40;99.90
8643;DHT22;4359;49.358;11.256;2022-08-05T00:18:27;21.40;99.90
8643;DHT22;4359;49.358;11.256;2022-08-05T00:20:53;21.40;99.90
8643;DHT22;4359;49.358;11.256;2022-08-05T00:23:20;21.30;99.90
8643;DHT22;4359;49.358;11.256;2022-08-05T00:25:46;21.20;99.90
8643;DHT22;4359;49.358;11.256;2022-08-05T00:28:13;21.10;99.90
8643;DHT22;4359;49.358;11.256;2022-08-05T00:30:39;21.00;99.90
8643;DHT22;4359;49.358;11.256;2022-08-05T00:33:05;20.90;99.90
8643;DHT22;4359;49.358;11.256;2022-08-05T00:35:30;21.00;99.90
8643;DHT22;4359;49.358;11.256;2022-08-05T00:37:56;21.10;99.90
8643;DHT22;4359;49.358;11.256;2022-08-05T00:40:24;21.10;99.90
8643;DHT22;4359;49.358;11.256;2022-08-05T00:42:50;21.10;99.90
8643;DHT22;4359;49.358;11.256;2022-08-05T00:45:15;21.10;99.90
8643;DHT22;4359;49.358;11.256;2022-08-05T00:47:41;21.00;99.90
8643;DHT22;4359;49.358;11.256;2022-08-05T00:50:08;20.90;99.90
8643;DHT22;4359;49.358;11.256;2022-08-05T00:52:34;20.90;99.90
8643;DHT22;4359;49.358;11.256;2022-08-05T00:54:59;20.90;99.90
8643;DHT22;4359;49.358;11.256;2022-08-05T00:57:25;20.90;99.90
8643;DHT22;4359;49.358;11.256;2022-08-05T00:59:51;20.90;99.90
8643;DHT22;4359;49.358;11.256;2022-08-05T01:02:17;20.90;99.90
8643;DHT22;4359;49.358;11.256;2022-08-05T01:04:42;20.90;99.90
8643;DHT22;4359;49.358;11.256;2022-08-05T01:07:08;20.80;99.90
8643;DHT22;4359;49.358;11.256;2022-08-05T01:09:34;20.80;99.90
8643;DHT22;4359;49.358;11.256;2022-08-05T01:12:05;20.80;99.90
8643;DHT22;4359;49.358;11.256;2022-08-05T01:14:40;20.80;99.90
8643;DHT22;4359;49.358;11.256;2022-08-05T01:17:12;20.80;99.90
8643;DHT22;4359;49.358;11.256;2022-08-05T01:19:54;20.70;99.90
8643;DHT22;4359;49.358;11.256;2022-08-05T01:23:14;20.60;99.90
8643;DHT22;4359;49.358;11.256;2022-08-05T01:28:31;20.50;99.90
8643;DHT22;4359;49.358;11.256;2022-08-05T01:31:09;20.50;99.90
8643;DHT22;4359;49.358;11.256;2022-08-05T01:33:43;20.60;99.90
8643;DHT22;4359;49.358;11.256;2022-08-05T01:36:14;20.60;99.90
8643;DHT22;4359;49.358;11.256;2022-08-05T01:38:42;20.50;99.90
8643;DHT22;4359;49.358;11.256;2022-08-05T01:41:09;20.40;99.90
8643;DHT22;4359;49.358;11.256;2022-08-05T01:43:36;20.40;99.90
8643;DHT22;4359;49.358;11.256;2022-08-05T01:46:03;20.40;99.90
8643;DHT22;4359;49.358;11.256;2022-08-05T01:48:30;20.40;99.90
8643;DHT22;4359;49.358;11.256;2022-08-05T01:50:59;20.40;99.90
8643;DHT22;4359;49.358;11.256;2022-08-05T01:53:27;20.40;99.90
8643;DHT22;4359;49.358;11.256;2022-08-05T01:55:57;20.40;99.90
8643;DHT22;4359;49.358;11.256;2022-08-05T01:58:25;20.40;99.90
8643;DHT22;4359;49.358;11.256;2022-08-05T02:00:53;20.30;99.90
8643;DHT22;4359;49.358;11.256;2022-08-05T02:03:36;20.30;99.90
8643;DHT22;4359;49.358;11.256;2022-08-05T02:06:04;20.20;99.90
8643;DHT22;4359;49.358;11.256;2022-08-05T02:08:34;20.20;99.90
8643;DHT22;4359;49.358;11.256;2022-08-05T02:11:11;20.10;99.90
8643;DHT22;4359;49.358;11.256;2022-08-05T02:13:56;20.10;99.90
8643;DHT22;4359;49.358;11.256;2022-08-05T02:17:02;20.10;99.90
8643;DHT22;4359;49.358;11.256;2022-08-05T02:19:35;20.00;99.90
8643;DHT22;4359;49.358;11.256;2022-08-05T02:22:25;20.00;99.90
8643;DHT22;4359;49.358;11.256;2022-08-05T02:25:07;19.90;99.90
8643;DHT22;4359;49.358;11.256;2022-08-05T02:27:37;19.80;99.90
8643;DHT22;4359;49.358;11.256;2022-08-05T02:30:05;19.70;99.90
8643;DHT22;4359;49.358;11.256;2022-08-05T02:32:33;19.60;99.90
8643;DHT22;4359;49.358;11.256;2022-08-05T02:35:02;19.50;99.90
8643;DHT22;4359;49.358;11.256;2022-08-05T02:37:32;19.50;99.90
8643;DHT22;4359;49.358;11.256;2022-08-05T02:40:00;19.50;99.90
8643;DHT22;4359;49.358;11.256;2022-08-05T02:42:27;19.50;99.90
8643;DHT22;4359;49.358;11.256;2022-08-05T02:44:55;19.60;99.90
8643;DHT22;4359;49.358;11.256;2022-08-05T02:47:22;19.60;99.90
8643;DHT22;4359;49.358;11.256;2022-08-05T02:49:48;19.70;99.90
8643;DHT22;4359;49.358;11.256;2022-08-05T02:52:17;19.70;99.90
8643;DHT22;4359;49.358;11.256;2022-08-05T02:54:44;19.70;99.90
8643;DHT22;4359;49.358;11.256;2022-08-05T02:57:12;19.70;99.90
8643;DHT22;4359;49.358;11.256;2022-08-05T02:59:41;19.70;99.90
8643;DHT22;4359;49.358;11.256;2022-08-05T03:02:09;19.70;99.90
8643;DHT22;4359;49.358;11.256;2022-08-05T03:04:36;19.70;99.90
8643;DHT22;4359;49.358;11.256;2022-08-05T03:07:02;19.70;99.90
8643;DHT22;4359;49.358;11.256;2022-08-05T03:09:29;19.70;99.90
8643;DHT22;4359;49.358;11.256;2022-08-05T03:12:35;19.80;99.90
8643;DHT22;4359;49.358;11.256;2022-08-05T03:15:07;19.80;99.90
8643;DHT22;4359;49.358;11.256;2022-08-05T03:17:33;19.80;99.90
8643;DHT22;4359;49.358;11.256;2022-08-05T03:19:59;19.80;99.90
8643;DHT22;4359;49.358;11.256;2022-08-05T03:22:25;19.90;99.90
8643;DHT22;4359;49.358;11.256;2022-08-05T03:24:52;19.90;99.90
8643;DHT22;4359;49.358;11.256;2022-08-05T03:27:19;19.90;99.90
8643;DHT22;4359;49.358;11.256;2022-08-05T03:29:45;19.90;99.90
8643;DHT22;4359;49.358;11.256;2022-08-05T03:32:12;19.90;99.90
8643;DHT22;4359;49.358;11.256;2022-08-05T03:34:38;19.90;99.90
8643;DHT22;4359;49.358;11.256;2022-08-05T03:37:05;19.80;99.90
8643;DHT22;4359;49.358;11.256;2022-08-05T03:39:31;19.70;99.90
8643;DHT22;4359;49.358;11.256;2022-08-05T03:41:56;19.70;99.90
8643;DHT22;4359;49.358;11.256;2022-08-05T03:44:23;19.70;99.90
8643;DHT22;4359;49.358;11.256;2022-08-05T03:46:49;19.60;99.90
8643;DHT22;4359;49.358;11.256;2022-08-05T03:49:15;19.60;99.90
8643;DHT22;4359;49.358;11.256;2022-08-05T03:51:54;19.20;99.90
8643;DHT22;4359;49.358;11.256;2022-08-05T03:54:33;19.80;99.90
8643;DHT22;4359;49.358;11.256;2022-08-05T03:57:01;20.40;99.90
8643;DHT22;4359;49.358;11.256;2022-08-05T03:59:41;20.90;99.90
8643;DHT22;4359;49.358;11.256;2022-08-05T04:02:10;21.10;99.90
8643;DHT22;4359;49.358;11.256;2022-08-05T04:04:38;21.40;99.90
8643;DHT22;4359;49.358;11.256;2022-08-05T04:07:05;21.50;99.90
8643;DHT22;4359;49.358;11.256;2022-08-05T04:09:31;21.50;99.90
8643;DHT22;4359;49.358;11.256;2022-08-05T04:11:58;21.40;99.90
8643;DHT22;4359;49.358;11.256;2022-08-05T04:14:26;21.30;99.90
8643;DHT22;4359;49.358;11.256;2022-08-05T04:16:52;21.20;99.90
8643;DHT22;4359;49.358;11.256;2022-08-05T04:19:19;21.10;99.90
8643;DHT22;4359;49.358;11.256;2022-08-05T04:21:45;21.10;99.90
8643;DHT22;4359;49.358;11.256;2022-08-05T04:24:10;21.20;99.90
8643;DHT22;4359;49.358;11.256;2022-08-05T04:26:36;21.30;99.90
8643;DHT22;4359;49.358;11.256;2022-08-05T04:29:02;21.30;99.90
8643;DHT22;4359;49.358;11.256;2022-08-05T04:31:28;21.30;99.90
8643;DHT22;4359;49.358;11.256;2022-08-05T04:33:53;21.20;99.90
8643;DHT22;4359;49.358;11.256;2022-08-05T04:36:19;21.20;99.90
8643;DHT22;4359;49.358;11.256;2022-08-05T04:38:45;21.10;99.90
8643;DHT22;4359;49.358;11.256;2022-08-05T04:41:11;20.90;99.90
8643;DHT22;4359;49.358;11.256;2022-08-05T04:43:37;20.70;99.90
8643;DHT22;4359;49.358;11.256;2022-08-05T04:46:03;20.70;99.90
8643;DHT22;4359;49.358;11.256;2022-08-05T04:48:29;20.70;99.90
8643;DHT22;4359;49.358;11.256;2022-08-05T04:50:56;20.90;99.90
8643;DHT22;4359;49.358;11.256;2022-08-05T04:53:22;20.90;99.90
8643;DHT22;4359;49.358;11.256;2022-08-05T04:55:47;21.00;99.90
8643;DHT22;4359;49.358;11.256;2022-08-05T04:58:15;21.20;99.90
8643;DHT22;4359;49.358;11.256;2022-08-05T05:00:42;21.30;99.90
8643;DHT22;4359;49.358;11.256;2022-08-05T05:03:09;21.40;99.90
8643;DHT22;4359;49.358;11.256;2022-08-05T05:05:35;21.60;99.90
8643;DHT22;4359;49.358;11.256;2022-08-05T05:08:06;21.80;99.90
8643;DHT22;4359;49.358;11.256;2022-08-05T05:10:38;22.10;99.90
8643;DHT22;4359;49.358;11.256;2022-08-05T05:13:07;22.30;99.90
8643;DHT22;4359;49.358;11.256;2022-08-05T05:15:33;22.50;99.90
8643;DHT22;4359;49.358;11.256;2022-08-05T05:17:58;22.60;99.90
8643;DHT22;4359;49.358;11.256;2022-08-05T05:20:24;22.60;99.90
8643;DHT22;4359;49.358;11.256;2022-08-05T05:22:49;22.60;99.90
8643;DHT22;4359;49.358;11.256;2022-08-05T05:25:15;22.50;99.90
8643;DHT22;4359;49.358;11.256;2022-08-05T05:27:41;22.30;99.90
8643;DHT22;4359;49.358;11.256;2022-08-05T05:30:07;22.20;99.90
8643;DHT22;4359;49.358;11.256;2022-08-05T05:32:33;22.30;99.90
8643;DHT22;4359;49.358;11.256;2022-08-05T05:34:58;22.30;99.90
8643;DHT22;4359;49.358;11.256;2022-08-05T05:37:24;22.00;99.90
8643;DHT22;4359;49.358;11.256;2022-08-05T05:39:50;21.80;99.90
8643;DHT22;4359;49.358;11.256;2022-08-05T05:42:15;21.60;99.90
8643;DHT22;4359;49.358;11.256;2022-08-05T05:44:41;21.50;99.90
8643;DHT22;4359;49.358;11.256;2022-08-05T05:47:07;21.40;99.90
8643;DHT22;4359;49.358;11.256;2022-08-05T05:49:32;21.40;99.90
8643;DHT22;4359;49.358;11.256;2022-08-05T05:51:58;21.30;99.90
8643;DHT22;4359;49.358;11.256;2022-08-05T05:54:24;21.30;99.90
8643;DHT22;4359;49.358;11.256;2022-08-05T05:56:49;21.40;99.90
8643;DHT22;4359;49.358;11.256;2022-08-05T05:59:15;21.70;99.90
8643;DHT22;4359;49.358;11.256;2022-08-05T06:01:42;22.10;99.90
8643;DHT22;4359;49.358;11.256;2022-08-05T06:04:09;22.70;99.90
8643;DHT22;4359;49.358;11.256;2022-08-05T06:06:35;23.10;99.90
8643;DHT22;4359;49.358;11.256;2022-08-05T06:09:05;23.40;99.90
8643;DHT22;4359;49.358;11.256;2022-08-05T06:11:31;23.80;99.90
8643;DHT22;4359;49.358;11.256;2022-08-05T06:13:58;24.00;99.90
8643;DHT22;4359;49.358;11.256;2022-08-05T06:16:24;24.20;99.90
8643;DHT22;4359;49.358;11.256;2022-08-05T06:18:49;24.40;99.90
8643;DHT22;4359;49.358;11.256;2022-08-05T06:21:16;24.80;99.90
8643;DHT22;4359;49.358;11.256;2022-08-05T06:23:41;25.20;99.90
8643;DHT22;4359;49.358;11.256;2022-08-05T06:26:07;25.70;99.90
8643;DHT22;4359;49.358;11.256;2022-08-05T06:28:33;26.10;99.90
8643;DHT22;4359;49.358;11.256;2022-08-05T06:30:58;26.50;99.90
8643;DHT22;4359;49.358;11.256;2022-08-05T06:33:24;26.80;99.90
8643;DHT22;4359;49.358;11.256;2022-08-05T06:35:50;27.10;99.90
8643;DHT22;4359;49.358;11.256;2022-08-05T06:38:16;27.00;98.60
8643;DHT22;4359;49.358;11.256;2022-08-05T06:40:42;26.60;98.90
8643;DHT22;4359;49.358;11.256;2022-08-05T06:43:07;26.50;98.60
8643;DHT22;4359;49.358;11.256;2022-08-05T06:45:33;26.20;99.20
8643;DHT22;4359;49.358;11.256;2022-08-05T06:47:59;26.20;99.00
8643;DHT22;4359;49.358;11.256;2022-08-05T06:50:24;26.20;99.00
8643;DHT22;4359;49.358;11.256;2022-08-05T06:52:51;26.00;99.40
8643;DHT22;4359;49.358;11.256;2022-08-05T06:55:17;25.90;99.70
8643;DHT22;4359;49.358;11.256;2022-08-05T06:57:43;25.70;99.80
8643;DHT22;4359;49.358;11.256;2022-08-05T07:00:09;25.60;99.90
8643;DHT22;4359;49.358;11.256;2022-08-05T07:02:45;25.60;99.90
8643;DHT22;4359;49.358;11.256;2022-08-05T07:05:12;25.60;99.90
8643;DHT22;4359;49.358;11.256;2022-08-05T07:07:39;25.50;99.90
8643;DHT22;4359;49.358;11.256;2022-08-05T07:10:06;25.50;99.90
8643;DHT22;4359;49.358;11.256;2022-08-05T07:12:32;25.60;99.90
8643;DHT22;4359;49.358;11.256;2022-08-05T07:15:16;25.60;99.90
8643;DHT22;4359;49.358;11.256;2022-08-05T07:18:00;25.70;99.90
8643;DHT22;4359;49.358;11.256;2022-08-05T07:20:26;25.50;99.90
8643;DHT22;4359;49.358;11.256;2022-08-05T07:22:51;25.40;99.90
8643;DHT22;4359;49.358;11.256;2022-08-05T07:25:17;25.30;99.90
8643;DHT22;4359;49.358;11.256;2022-08-05T07:27:43;25.30;99.90
8643;DHT22;4359;49.358;11.256;2022-08-05T07:30:09;25.30;99.90
8643;DHT22;4359;49.358;11.256;2022-08-05T07:32:35;25.80;99.90
8643;DHT22;4359;49.358;11.256;2022-08-05T07:35:05;26.20;99.90
8643;DHT22;4359;49.358;11.256;2022-08-05T07:37:31;26.30;99.90
8643;DHT22;4359;49.358;11.256;2022-08-05T07:39:57;26.50;99.90
8643;DHT22;4359;49.358;11.256;2022-08-05T07:42:22;26.60;99.90
8643;DHT22;4359;49.358;11.256;2022-08-05T07:44:48;26.60;99.90
8643;DHT22;4359;49.358;11.256;2022-08-05T07:47:14;27.20;99.90
8643;DHT22;4359;49.358;11.256;2022-08-05T07:49:40;26.90;99.90
8643;DHT22;4359;49.358;11.256;2022-08-05T07:52:05;26.70;99.90
8643;DHT22;4359;49.358;11.256;2022-08-05T07:54:31;26.50;99.90
8643;DHT22;4359;49.358;11.256;2022-08-05T07:56:56;26.50;99.90
8643;DHT22;4359;49.358;11.256;2022-08-05T07:59:22;26.90;99.90
8643;DHT22;4359;49.358;11.256;2022-08-05T08:01:48;27.30;99.90
8643;DHT22;4359;49.358;11.256;2022-08-05T08:04:13;27.80;99.90
8643;DHT22;4359;49.358;11.256;2022-08-05T08:06:39;28.10;99.10
8643;DHT22;4359;49.358;11.256;2022-08-05T08:09:05;28.50;98.60
8643;DHT22;4359;49.358;11.256;2022-08-05T08:11:30;28.70;98.20
8643;DHT22;4359;49.358;11.256;2022-08-05T08:13:57;28.70;97.80
8643;DHT22;4359;49.358;11.256;2022-08-05T08:16:23;28.30;97.70
8643;DHT22;4359;49.358;11.256;2022-08-05T08:18:48;28.30;98.00
8643;DHT22;4359;49.358;11.256;2022-08-05T08:21:14;28.30;97.40
8643;DHT22;4359;49.358;11.256;2022-08-05T08:23:40;28.50;97.60
8643;DHT22;4359;49.358;11.256;2022-08-05T08:26:05;28.60;97.20
8643;DHT22;4359;49.358;11.256;2022-08-05T08:28:31;28.40;97.10
8643;DHT22;4359;49.358;11.256;2022-08-05T08:30:57;28.00;97.50
8643;DHT22;4359;49.358;11.256;2022-08-05T08:33:23;27.80;97.90
8643;DHT22;4359;49.358;11.256;2022-08-05T08:35:49;27.70;98.10
8643;DHT22;4359;49.358;11.256;2022-08-05T08:38:15;27.60;98.10
8643;DHT22;4359;49.358;11.256;2022-08-05T08:40:41;27.50;98.20
8643;DHT22;4359;49.358;11.256;2022-08-05T08:43:11;27.40;98.40
8643;DHT22;4359;49.358;11.256;2022-08-05T08:45:37;27.60;98.50
8643;DHT22;4359;49.358;11.256;2022-08-05T08:48:05;28.00;98.20
8643;DHT22;4359;49.358;11.256;2022-08-05T08:50:31;28.70;97.50
8643;DHT22;4359;49.358;11.256;2022-08-05T08:53:05;28.90;96.90
8643;DHT22;4359;49.358;11.256;2022-08-05T08:55:32;29.30;97.10
8643;DHT22;4359;49.358;11.256;2022-08-05T08:57:59;29.70;95.90
8643;DHT22;4359;49.358;11.256;2022-08-05T09:00:26;30.00;95.70
8643;DHT22;4359;49.358;11.256;2022-08-05T09:02:52;30.20;95.90
8643;DHT22;4359;49.358;11.256;2022-08-05T09:05:19;30.60;94.60
8643;DHT22;4359;49.358;11.256;2022-08-05T09:07:45;30.50;94.00
8643;DHT22;4359;49.358;11.256;2022-08-05T09:10:12;30.50;94.60
8643;DHT22;4359;49.358;11.256;2022-08-05T09:12:38;30.70;94.20
8643;DHT22;4359;49.358;11.256;2022-08-05T09:15:04;31.10;94.20
8643;DHT22;4359;49.358;11.256;2022-08-05T09:17:31;31.70;92.90
8643;DHT22;4359;49.358;11.256;2022-08-05T09:20:01;31.40;92.70
8643;DHT22;4359;49.358;11.256;2022-08-05T09:22:27;31.50;93.50
8643;DHT22;4359;49.358;11.256;2022-08-05T09:25:01;31.30;93.10
8643;DHT22;4359;49.358;11.256;2022-08-05T09:27:35;31.20;93.10
8643;DHT22;4359;49.358;11.256;2022-08-05T09:30:02;31.10;93.30
8643;DHT22;4359;49.358;11.256;2022-08-05T09:32:37;31.40;92.90
8643;DHT22;4359;49.358;11.256;2022-08-05T09:35:12;31.70;92.60
8643;DHT22;4359;49.358;11.256;2022-08-05T09:37:48;31.30;91.60
8643;DHT22;4359;49.358;11.256;2022-08-05T09:40:32;30.70;92.30
8643;DHT22;4359;49.358;11.256;2022-08-05T09:42:59;30.50;92.60
8643;DHT22;4359;49.358;11.256;2022-08-05T09:45:39;30.60;92.80
8643;DHT22;4359;49.358;11.256;2022-08-05T09:48:38;31.40;92.30
8643;DHT22;4359;49.358;11.256;2022-08-05T09:51:05;32.10;91.50
8643;DHT22;4359;49.358;11.256;2022-08-05T09:54:05;32.40;91.30
8643;DHT22;4359;49.358;11.256;2022-08-05T09:56:37;32.30;90.60
8643;DHT22;4359;49.358;11.256;2022-08-05T09:59:04;32.00;90.40
8643;DHT22;4359;49.358;11.256;2022-08-05T10:01:31;31.90;90.20
8643;DHT22;4359;49.358;11.256;2022-08-05T10:04:09;31.80;90.30
8643;DHT22;4359;49.358;11.256;2022-08-05T10:06:55;31.30;90.60
8643;DHT22;4359;49.358;11.256;2022-08-05T10:09:21;31.00;91.20
8643;DHT22;4359;49.358;11.256;2022-08-05T10:11:47;30.60;91.40
8643;DHT22;4359;49.358;11.256;2022-08-05T10:14:25;30.10;91.60
8643;DHT22;4359;49.358;11.256;2022-08-05T10:16:52;29.70;92.40
8643;DHT22;4359;49.358;11.256;2022-08-05T10:19:21;29.60;92.80
8643;DHT22;4359;49.358;11.256;2022-08-05T10:21:47;29.50;92.80
8643;DHT22;4359;49.358;11.256;2022-08-05T10:24:15;29.90;93.30
8643;DHT22;4359;49.358;11.256;2022-08-05T10:26:42;29.90;92.80
8643;DHT22;4359;49.358;11.256;2022-08-05T10:29:08;29.80;92.60
8643;DHT22;4359;49.358;11.256;2022-08-05T10:31:36;29.50;92.70
8643;DHT22;4359;49.358;11.256;2022-08-05T10:34:07;29.30;92.80
8643;DHT22;4359;49.358;11.256;2022-08-05T10:36:39;29.60;92.80
8643;DHT22;4359;49.358;11.256;2022-08-05T10:39:16;30.60;92.80
8643;DHT22;4359;49.358;11.256;2022-08-05T10:44:31;33.00;89.00
8643;DHT22;4359;49.358;11.256;2022-08-05T10:46:57;33.40;88.20
8643;DHT22;4359;49.358;11.256;2022-08-05T10:49:24;33.20;86.00
8643;DHT22;4359;49.358;11.256;2022-08-05T10:51:53;33.50;86.10
8643;DHT22;4359;49.358;11.256;2022-08-05T10:54:23;33.50;86.20
8643;DHT22;4359;49.358;11.256;2022-08-05T10:56:53;33.30;84.90
8643;DHT22;4359;49.358;11.256;2022-08-05T10:59:30;33.20;85.10
8643;DHT22;4359;49.358;11.256;2022-08-05T11:02:10;33.60;83.80
8643;DHT22;4359;49.358;11.256;2022-08-05T11:04:42;33.60;82.60
8643;DHT22;4359;49.358;11.256;2022-08-05T11:07:09;33.70;81.20
8643;DHT22;4359;49.358;11.256;2022-08-05T11:09:45;33.60;81.70
8643;DHT22;4359;49.358;11.256;2022-08-05T11:15:07;33.50;79.90
8643;DHT22;4359;49.358;11.256;2022-08-05T11:17:37;33.60;79.60
8643;DHT22;4359;49.358;11.256;2022-08-05T11:20:33;33.40;79.10
8643;DHT22;4359;49.358;11.256;2022-08-05T11:22:59;33.70;79.60
8643;DHT22;4359;49.358;11.256;2022-08-05T11:25:35;34.60;77.60
8643;DHT22;4359;49.358;11.256;2022-08-05T11:33:31;35.80;76.10
8643;DHT22;4359;49.358;11.256;2022-08-05T11:36:02;36.10;74.40
8643;DHT22;4359;49.358;11.256;2022-08-05T11:41:26;36.10;71.90
8643;DHT22;4359;49.358;11.256;2022-08-05T11:43:58;35.70;71.80
8643;DHT22;4359;49.358;11.256;2022-08-05T11:46:37;35.70;70.50
8643;DHT22;4359;49.358;11.256;2022-08-05T11:49:05;35.80;71.00
8643;DHT22;4359;49.358;11.256;2022-08-05T11:51:31;36.20;70.00
8643;DHT22;4359;49.358;11.256;2022-08-05T11:53:57;36.30;69.70
8643;DHT22;4359;49.358;11.256;2022-08-05T11:58:52;35.30;69.20
8643;DHT22;4359;49.358;11.256;2022-08-05T12:01:20;35.30;69.10
8643;DHT22;4359;49.358;11.256;2022-08-05T12:03:52;35.20;70.50
8643;DHT22;4359;49.358;11.256;2022-08-05T12:06:21;35.10;71.40
8643;DHT22;4359;49.358;11.256;2022-08-05T12:08:52;35.50;69.20
8643;DHT22;4359;49.358;11.256;2022-08-05T12:11:20;35.70;69.30
8643;DHT22;4359;49.358;11.256;2022-08-05T12:13:58;35.80;68.40
8643;DHT22;4359;49.358;11.256;2022-08-05T12:16:32;35.90;68.20
8643;DHT22;4359;49.358;11.256;2022-08-05T12:18:59;36.20;68.80
8643;DHT22;4359;49.358;11.256;2022-08-05T12:21:30;36.20;68.50
8643;DHT22;4359;49.358;11.256;2022-08-05T12:24:09;36.20;68.00
8643;DHT22;4359;49.358;11.256;2022-08-05T12:26:42;36.30;68.00
8643;DHT22;4359;49.358;11.256;2022-08-05T12:29:20;36.30;67.50
8643;DHT22;4359;49.358;11.256;2022-08-05T12:31:48;36.90;66.00
8643;DHT22;4359;49.358;11.256;2022-08-05T12:34:15;37.50;66.10
8643;DHT22;4359;49.358;11.256;2022-08-05T12:36:42;38.00;65.50
8643;DHT22;4359;49.358;11.256;2022-08-05T12:39:09;37.80;64.30
8643;DHT22;4359;49.358;11.256;2022-08-05T12:41:36;38.00;65.20
8643;DHT22;4359;49.358;11.256;2022-08-05T12:44:07;38.20;62.90
8643;DHT22;4359;49.358;11.256;2022-08-05T12:46:37;37.80;64.30
8643;DHT22;4359;49.358;11.256;2022-08-05T12:49:13;37.60;64.00
8643;DHT22;4359;49.358;11.256;2022-08-05T12:51:58;37.50;65.00
8643;DHT22;4359;49.358;11.256;2022-08-05T12:54:26;36.90;64.90
8643;DHT22;4359;49.358;11.256;2022-08-05T12:56:53;36.80;65.70
8643;DHT22;4359;49.358;11.256;2022-08-05T12:59:24;36.70;63.80
8643;DHT22;4359;49.358;11.256;2022-08-05T13:01:58;36.20;65.00
8643;DHT22;4359;49.358;11.256;2022-08-05T13:04:32;35.90;65.50
8643;DHT22;4359;49.358;11.256;2022-08-05T13:07:00;36.20;65.00
8643;DHT22;4359;49.358;11.256;2022-08-05T13:09:27;36.20;64.60
8643;DHT22;4359;49.358;11.256;2022-08-05T13:14:33;36.90;64.20
8643;DHT22;4359;49.358;11.256;2022-08-05T13:16:59;37.20;63.80
8643;DHT22;4359;49.358;11.256;2022-08-05T13:19:27;37.50;61.80
8643;DHT22;4359;49.358;11.256;2022-08-05T13:21:53;37.50;61.90
8643;DHT22;4359;49.358;11.256;2022-08-05T13:24:21;37.30;62.50
8643;DHT22;4359;49.358;11.256;2022-08-05T13:26:50;36.70;62.90
8643;DHT22;4359;49.358;11.256;2022-08-05T13:29:16;36.80;64.20
8643;DHT22;4359;49.358;11.256;2022-08-05T13:31:44;36.30;63.80
8643;DHT22;4359;49.358;11.256;2022-08-05T13:34:10;36.00;64.80
8643;DHT22;4359;49.358;11.256;2022-08-05T13:36:36;36.60;64.50
8643;DHT22;4359;49.358;11.256;2022-08-05T13:39:03;36.70;64.30
8643;DHT22;4359;49.358;11.256;2022-08-05T13:41:29;37.10;64.20
8643;DHT22;4359;49.358;11.256;2022-08-05T13:43:55;37.60;62.30
8643;DHT22;4359;49.358;11.256;2022-08-05T13:46:22;37.80;61.70
8643;DHT22;4359;49.358;11.256;2022-08-05T13:48:48;36.80;63.10
8643;DHT22;4359;49.358;11.256;2022-08-05T13:51:13;36.70;63.20
8643;DHT22;4359;49.358;11.256;2022-08-05T13:53:40;36.30;62.80
8643;DHT22;4359;49.358;11.256;2022-08-05T13:56:06;36.30;63.40
8643;DHT22;4359;49.358;11.256;2022-08-05T13:58:32;36.50;63.00
8643;DHT22;4359;49.358;11.256;2022-08-05T14:00:58;36.70;63.50
8643;DHT22;4359;49.358;11.256;2022-08-05T14:03:24;35.90;64.40
8643;DHT22;4359;49.358;11.256;2022-08-05T14:05:52;35.90;64.60
8643;DHT22;4359;49.358;11.256;2022-08-05T14:08:18;36.10;65.20
8643;DHT22;4359;49.358;11.256;2022-08-05T14:10:43;36.50;64.50
8643;DHT22;4359;49.358;11.256;2022-08-05T14:13:09;36.60;64.70
8643;DHT22;4359;49.358;11.256;2022-08-05T14:15:35;36.40;64.60
8643;DHT22;4359;49.358;11.256;2022-08-05T14:18:01;36.00;65.20
8643;DHT22;4359;49.358;11.256;2022-08-05T14:20:28;36.00;65.90
8643;DHT22;4359;49.358;11.256;2022-08-05T14:22:54;36.50;64.80
8643;DHT22;4359;49.358;11.256;2022-08-05T14:25:19;35.90;65.10
8643;DHT22;4359;49.358;11.256;2022-08-05T14:27:47;34.90;66.30
8643;DHT22;4359;49.358;11.256;2022-08-05T14:30:14;34.20;67.60
8643;DHT22;4359;49.358;11.256;2022-08-05T14:32:40;34.60;67.40
8643;DHT22;4359;49.358;11.256;2022-08-05T14:35:06;35.30;66.50
8643;DHT22;4359;49.358;11.256;2022-08-05T14:37:32;35.60;66.30
8643;DHT22;4359;49.358;11.256;2022-08-05T14:39:58;35.40;66.10
8643;DHT22;4359;49.358;11.256;2022-08-05T14:42:23;34.20;67.70
8643;DHT22;4359;49.358;11.256;2022-08-05T14:44:49;33.30;69.10
8643;DHT22;4359;49.358;11.256;2022-08-05T14:47:15;33.10;70.20
8643;DHT22;4359;49.358;11.256;2022-08-05T14:49:41;33.10;70.40
8643;DHT22;4359;49.358;11.256;2022-08-05T14:52:07;33.20;70.60
8643;DHT22;4359;49.358;11.256;2022-08-05T14:54:32;33.20;70.10
8643;DHT22;4359;49.358;11.256;2022-08-05T14:56:59;33.20;69.90
8643;DHT22;4359;49.358;11.256;2022-08-05T14:59:25;33.20;70.50
8643;DHT22;4359;49.358;11.256;2022-08-05T15:01:51;33.80;69.70
8643;DHT22;4359;49.358;11.256;2022-08-05T15:04:17;33.70;71.10
8643;DHT22;4359;49.358;11.256;2022-08-05T15:06:43;34.40;69.20
8643;DHT22;4359;49.358;11.256;2022-08-05T15:09:09;34.90;68.70
8643;DHT22;4359;49.358;11.256;2022-08-05T15:11:35;34.50;68.10
8643;DHT22;4359;49.358;11.256;2022-08-05T15:14:01;33.80;69.40
8643;DHT22;4359;49.358;11.256;2022-08-05T15:16:27;33.20;69.90
8643;DHT22;4359;49.358;11.256;2022-08-05T15:18:53;33.00;71.10
8643;DHT22;4359;49.358;11.256;2022-08-05T15:21:18;32.80;71.10
8643;DHT22;4359;49.358;11.256;2022-08-05T15:23:44;32.70;72.00
8643;DHT22;4359;49.358;11.256;2022-08-05T15:26:10;32.60;71.50
8643;DHT22;4359;49.358;11.256;2022-08-05T15:28:36;32.50;71.80
8643;DHT22;4359;49.358;11.256;2022-08-05T15:31:01;32.40;71.80
8643;DHT22;4359;49.358;11.256;2022-08-05T15:33:27;32.40;72.00
8643;DHT22;4359;49.358;11.256;2022-08-05T15:35:52;32.40;72.20
8643;DHT22;4359;49.358;11.256;2022-08-05T15:38:18;32.40;72.10
8643;DHT22;4359;49.358;11.256;2022-08-05T15:40:44;32.40;71.90
8643;DHT22;4359;49.358;11.256;2022-08-05T15:43:09;32.40;72.70
8643;DHT22;4359;49.358;11.256;2022-08-05T15:45:35;32.40;72.80
8643;DHT22;4359;49.358;11.256;2022-08-05T15:48:01;32.20;72.40
8643;DHT22;4359;49.358;11.256;2022-08-05T15:50:28;32.10;72.10
8643;DHT22;4359;49.358;11.256;2022-08-05T15:52:53;32.20;72.20
8643;DHT22;4359;49.358;11.256;2022-08-05T15:55:19;32.10;72.10
8643;DHT22;4359;49.358;11.256;2022-08-05T15:57:45;32.10;71.40
8643;DHT22;4359;49.358;11.256;2022-08-05T16:00:11;32.10;71.90
8643;DHT22;4359;49.358;11.256;2022-08-05T16:02:37;32.30;71.30
8643;DHT22;4359;49.358;11.256;2022-08-05T16:05:03;32.80;70.90
8643;DHT22;4359;49.358;11.256;2022-08-05T16:07:30;33.10;70.10
8643;DHT22;4359;49.358;11.256;2022-08-05T16:09:56;32.70;70.90
8643;DHT22;4359;49.358;11.256;2022-08-05T16:12:21;32.20;72.00
8643;DHT22;4359;49.358;11.256;2022-08-05T16:14:47;32.00;73.20